M I D A S
Marine Information and Data Acquisition System
Tripno 1034 of the Zeeleeuw from 2006-02-22 07:44:26 to 2006-02-22 12:53:22
Back to CruiseResearch ActivitiesStationsMapUnderway DataData graphs

EquipmentUnitsComments
TimeDGPSUTC
LatitudeDGPSDM.mWGS84
LongitudeDGPSDM.mWGS84
SpeedMeteo Stationm/sRelative wind speed
DirectionMeteo StationdegRelative wind direction
TemperatureMeteo Stationdeg CelciusAir temperature
PressureMeteo StationPaAtmospheric pressure
HumidityMeteo Station%Relative humidity
Missing or incorrect values are displayed as -999
Metereological data collected by the RV Zeeleeuw from 2006-02-22 07:27:39 to 2006-02-22 13:15:29
                                                                                    Next 1000 lines
Time Latitude Longitude Speed Direction Temperature Pressure Humidity
2006-02-22 07:27:49 51°13.599 2°56.091 -999 331 3 102200 88
2006-02-22 07:27:55 51°13.599 2°56.088 -999 306 3 102200 88
2006-02-22 07:27:59 51°13.6 2°56.085 -999 301 3.1 102200 88
2006-02-22 07:28:05 51°13.601 2°56.081 -999 312 3.1 102200 88
2006-02-22 07:28:10 51°13.603 2°56.077 -999 331 3 102200 88
2006-02-22 07:28:15 51°13.604 2°56.072 -999 316 3 102200 88
2006-02-22 07:28:20 51°13.605 2°56.067 -999 305 3 102200 88
2006-02-22 07:28:24 51°13.607 2°56.063 -999 292 3 102200 88
2006-02-22 07:28:30 51°13.608 2°56.055 -999 319 3 102210 88
2006-02-22 07:28:35 51°13.61 2°56.049 -999 313 3 102210 88
2006-02-22 07:28:40 51°13.612 2°56.043 -999 300 3 102200 88
2006-02-22 07:28:46 51°13.615 2°56.034 -999 299 3 102200 88
2006-02-22 07:28:50 51°13.616 2°56.028 -999 290 3 102210 88
2006-02-22 07:28:55 51°13.619 2°56.02 -999 264 3 102210 88
2006-02-22 07:29:00 51°13.621 2°56.012 -999 284 3 102210 88
2006-02-22 07:29:05 51°13.624 2°56.003 -999 288 3 102210 88
2006-02-22 07:29:10 51°13.626 2°55.995 -999 270 3 102210 88
2006-02-22 07:29:16 51°13.63 2°55.984 -999 275 3 102210 88
2006-02-22 07:29:20 51°13.632 2°55.976 -999 298 3 102210 88
2006-02-22 07:29:25 51°13.635 2°55.967 -999 274 3 102210 88
2006-02-22 07:29:30 51°13.639 2°55.958 -999 283 3 102210 88
2006-02-22 07:29:35 51°13.642 2°55.948 -999 42 3 102210 88
2006-02-22 07:29:40 51°13.645 2°55.938 -999 300 3 102220 88
2006-02-22 07:29:45 51°13.649 2°55.929 -999 293 3 102220 88
2006-02-22 07:29:50 51°13.652 2°55.919 -999 291 3 102210 88
2006-02-22 07:29:56 51°13.657 2°55.907 -999 257 3 102210 88
2006-02-22 07:30:00 51°13.66 2°55.899 -999 325 3 102210 88
2006-02-22 07:30:05 51°13.664 2°55.889 -999 271 3 102210 88
2006-02-22 07:30:10 51°13.668 2°55.879 -999 266 3 102210 88
2006-02-22 07:30:15 51°13.671 2°55.869 -999 245 3 102210 88
2006-02-22 07:30:20 51°13.675 2°55.858 -999 256 3 102210 88
2006-02-22 07:30:26 51°13.68 2°55.846 -999 321 3 102210 88
2006-02-22 07:30:30 51°13.683 2°55.838 -999 230 3.1 102210 88
2006-02-22 07:30:35 51°13.687 2°55.827 -999 292 3.1 102210 88
2006-02-22 07:30:40 51°13.691 2°55.817 -999 285 3.1 102210 88
2006-02-22 07:30:46 51°13.695 2°55.805 -999 265 3.1 102210 88
2006-02-22 07:30:50 51°13.698 2°55.797 -999 302 3.1 102210 88
2006-02-22 07:30:55 51°13.702 2°55.786 -999 292 3.1 102210 88
2006-02-22 07:31:00 51°13.705 2°55.776 -999 312 3.1 102210 88
2006-02-22 07:31:06 51°13.708 2°55.765 -999 311 3.1 102210 88
2006-02-22 07:31:10 51°13.71 2°55.757 -999 315 3.1 102210 88
2006-02-22 07:31:15 51°13.712 2°55.749 -999 304 3.1 102210 88
2006-02-22 07:31:20 51°13.714 2°55.74 -999 310 3.1 102210 88
2006-02-22 07:31:25 51°13.715 2°55.732 -999 321 3.1 102210 88
2006-02-22 07:31:30 51°13.717 2°55.725 -999 310 3.1 102220 88
2006-02-22 07:31:35 51°13.718 2°55.719 -999 318 3.1 102220 88
2006-02-22 07:31:40 51°13.719 2°55.715 -999 344 3.1 102210 88
2006-02-22 07:31:44 51°13.719 2°55.713 -999 355 3.1 102210 88
2006-02-22 07:31:50 51°13.72 2°55.713 -999 349 3.1 102220 88
2006-02-22 07:31:55 51°13.72 2°55.715 -999 350 3.1 102220 88
2006-02-22 07:32:00 51°13.721 2°55.719 -999 2 3.1 102220 88
2006-02-22 07:32:05 51°13.722 2°55.722 -999 7 3.1 102220 88
2006-02-22 07:32:10 51°13.723 2°55.725 -999 12 3.1 102200 88
2006-02-22 07:32:15 51°13.723 2°55.726 -999 343 3.1 102200 88
2006-02-22 07:32:20 51°13.723 2°55.726 -999 10 3 102200 88
2006-02-22 07:32:25 51°13.723 2°55.724 -999 8 3 102200 88
2006-02-22 07:32:30 51°13.723 2°55.722 -999 29 3 102210 88
2006-02-22 07:32:35 51°13.722 2°55.72 -999 67 3 102210 88
2006-02-22 07:32:40 51°13.721 2°55.716 -999 27 3.1 102210 88
2006-02-22 07:32:44 51°13.719 2°55.714 -999 11 3.1 102210 88
2006-02-22 07:32:50 51°13.718 2°55.71 -999 34 3.1 102210 88
2006-02-22 07:32:55 51°13.717 2°55.707 -999 38 3.1 102210 88
2006-02-22 07:33:00 51°13.717 2°55.706 -999 37 3.1 102210 88
2006-02-22 07:33:06 51°13.717 2°55.704 -999 37 3.1 102210 88
2006-02-22 07:33:10 51°13.717 2°55.704 -999 29 3.1 102210 88
2006-02-22 07:33:15 51°13.717 2°55.703 -999 51 3.1 102210 88
2006-02-22 07:33:20 51°13.718 2°55.704 -999 56 3 102210 88
2006-02-22 07:33:24 51°13.719 2°55.704 -999 68 3 102210 88
2006-02-22 07:33:30 51°13.722 2°55.704 -999 89 3.1 102220 88
2006-02-22 07:33:35 51°13.724 2°55.704 -999 95 3.1 102220 88
2006-02-22 07:33:40 51°13.726 2°55.704 -999 94 3.1 102210 88
2006-02-22 07:33:44 51°13.729 2°55.704 -999 80 3.1 102210 88
2006-02-22 07:33:50 51°13.733 2°55.702 -999 82 3.1 102210 88
2006-02-22 07:33:55 51°13.736 2°55.7 -999 101 3.1 102210 88
2006-02-22 07:34:00 51°13.74 2°55.697 -999 113 3.1 102210 88
2006-02-22 07:34:05 51°13.745 2°55.694 -999 52 3.1 102210 88
2006-02-22 07:34:10 51°13.75 2°55.69 -999 107 3.1 102210 88
2006-02-22 07:34:15 51°13.756 2°55.686 -999 76 3.1 102210 88
2006-02-22 07:34:20 51°13.762 2°55.682 -999 59 3.1 102210 88
2006-02-22 07:34:24 51°13.767 2°55.678 -999 78 3.1 102210 88
2006-02-22 07:34:30 51°13.775 2°55.671 -999 79 3.1 102220 88
2006-02-22 07:34:36 51°13.784 2°55.665 -999 98 3.1 102220 88
2006-02-22 07:34:40 51°13.79 2°55.661 -999 79 3.1 102220 88
2006-02-22 07:34:45 51°13.798 2°55.655 -999 54 3.1 102220 88
2006-02-22 07:34:50 51°13.806 2°55.65 -999 47 3.1 102210 88
2006-02-22 07:34:55 51°13.815 2°55.644 -999 22 3.1 102210 88
2006-02-22 07:35:00 51°13.823 2°55.638 -999 41 3.1 102220 88
2006-02-22 07:35:05 51°13.832 2°55.631 -999 64 3.1 102220 88
2006-02-22 07:35:10 51°13.841 2°55.624 -999 65 3.1 102220 88
2006-02-22 07:35:15 51°13.85 2°55.618 -999 62 3.1 102220 88
2006-02-22 07:35:20 51°13.86 2°55.611 -999 72 3.1 102220 88
2006-02-22 07:35:25 51°13.869 2°55.603 -999 115 3.1 102220 88
2006-02-22 07:35:30 51°13.878 2°55.596 -999 79 3.1 102220 88
2006-02-22 07:35:35 51°13.888 2°55.588 -999 72 3.1 102220 88
2006-02-22 07:35:40 51°13.898 2°55.581 -999 82 3.1 102220 88
2006-02-22 07:35:46 51°13.909 2°55.572 -999 71 3.1 102220 88
2006-02-22 07:35:50 51°13.917 2°55.565 -999 59 3.1 102220 88
2006-02-22 07:35:55 51°13.927 2°55.558 -999 65 3.1 102220 88
2006-02-22 07:36:00 51°13.937 2°55.55 -999 66 3.1 102220 88
2006-02-22 07:36:04 51°13.945 2°55.544 -999 78 3.1 102220 88
2006-02-22 07:36:10 51°13.957 2°55.535 -999 72 3.1 102210 88
2006-02-22 07:36:15 51°13.968 2°55.527 -999 79 3.1 102210 88
2006-02-22 07:36:20 51°13.978 2°55.52 -999 87 3.1 102220 88
2006-02-22 07:36:25 51°13.988 2°55.512 -999 76 3.1 102220 88
2006-02-22 07:36:30 51°13.999 2°55.505 -999 62 3.1 102220 88
2006-02-22 07:36:35 51°14.009 2°55.497 -999 76 3.1 102220 88
2006-02-22 07:36:40 51°14.019 2°55.49 -999 85 3.1 102210 88
2006-02-22 07:36:45 51°14.03 2°55.483 -999 63 3.1 102210 88
2006-02-22 07:36:50 51°14.04 2°55.476 -999 85 3.1 102220 88
2006-02-22 07:36:55 51°14.05 2°55.469 -999 82 3.1 102220 88
2006-02-22 07:37:00 51°14.06 2°55.463 -999 78 3.1 102220 88
2006-02-22 07:37:05 51°14.07 2°55.456 -999 74 3.1 102220 88
2006-02-22 07:37:10 51°14.079 2°55.449 -999 69 3.1 102220 88
2006-02-22 07:37:15 51°14.089 2°55.443 -999 71 3.1 102220 88
2006-02-22 07:37:20 51°14.099 2°55.436 -999 94 3 102210 88
2006-02-22 07:37:24 51°14.107 2°55.43 -999 89 3 102210 88
2006-02-22 07:37:30 51°14.119 2°55.422 -999 94 3.1 102220 88
2006-02-22 07:37:35 51°14.129 2°55.414 -999 65 3.1 102220 88
2006-02-22 07:37:40 51°14.14 2°55.407 -999 65 3.1 102220 88
2006-02-22 07:37:45 51°14.15 2°55.399 -999 64 3.1 102220 88
2006-02-22 07:37:50 51°14.16 2°55.391 -999 57 3 102210 88
2006-02-22 07:37:55 51°14.171 2°55.382 -999 60 3 102210 88
2006-02-22 07:38:00 51°14.181 2°55.372 -999 76 3.1 102220 88
2006-02-22 07:38:05 51°14.191 2°55.362 -999 86 3.1 102220 88
2006-02-22 07:38:10 51°14.201 2°55.35 -999 84 3.1 102220 88
2006-02-22 07:38:15 51°14.211 2°55.339 -999 78 3.1 102220 88
2006-02-22 07:38:20 51°14.22 2°55.327 -999 91 3.1 102220 88
2006-02-22 07:38:25 51°14.229 2°55.314 -999 96 3.1 102220 88
2006-02-22 07:38:30 51°14.238 2°55.301 -999 95 3 102210 88
2006-02-22 07:38:36 51°14.248 2°55.284 -999 106 3 102210 88
2006-02-22 07:38:40 51°14.254 2°55.272 -999 110 3 102210 88
2006-02-22 07:38:44 51°14.261 2°55.26 -999 100 3 102210 88
2006-02-22 07:38:50 51°14.271 2°55.241 -999 89 3 102210 88
2006-02-22 07:38:55 51°14.279 2°55.226 -999 90 3 102210 88
2006-02-22 07:39:00 51°14.287 2°55.209 -999 107 3 102220 88
2006-02-22 07:39:04 51°14.293 2°55.196 -999 75 3 102220 88
2006-02-22 07:39:10 51°14.303 2°55.176 -999 86 3 102220 88
2006-02-22 07:39:15 51°14.311 2°55.159 -999 113 3 102220 88
2006-02-22 07:39:20 51°14.319 2°55.142 -999 86 3.1 102220 88
2006-02-22 07:39:24 51°14.325 2°55.128 -999 102 3.1 102220 88
2006-02-22 07:39:30 51°14.334 2°55.107 -999 101 3.1 102220 88
2006-02-22 07:39:35 51°14.342 2°55.09 -999 100 3.1 102220 88
2006-02-22 07:39:40 51°14.35 2°55.071 -999 104 3.1 102210 88
2006-02-22 07:39:44 51°14.355 2°55.056 -999 99 3.1 102210 88
2006-02-22 07:39:50 51°14.363 2°55.032 -999 77 3.1 102210 88
2006-02-22 07:39:55 51°14.369 2°55.011 -999 109 3.1 102210 88
2006-02-22 07:39:59 51°14.374 2°54.994 -999 125 3 102210 88
2006-02-22 07:40:04 51°14.379 2°54.973 -999 133 3 102210 88
2006-02-22 07:40:10 51°14.385 2°54.947 -999 131 3.1 102220 88
2006-02-22 07:40:15 51°14.389 2°54.924 -999 137 3.1 102220 88
2006-02-22 07:40:20 51°14.393 2°54.902 -999 135 3.1 102210 88
2006-02-22 07:40:25 51°14.396 2°54.879 -999 128 3.1 102210 88
2006-02-22 07:40:30 51°14.4 2°54.855 -999 134 3.1 102210 88
2006-02-22 07:40:35 51°14.402 2°54.833 -999 125 3.1 102210 88
2006-02-22 07:40:40 51°14.405 2°54.809 -999 113 3.1 102200 88
2006-02-22 07:40:44 51°14.409 2°54.79 -999 130 3.1 102200 88
2006-02-22 07:40:50 51°14.413 2°54.762 -999 121 3.1 102220 88
2006-02-22 07:40:55 51°14.418 2°54.739 -999 123 3.1 102220 88
2006-02-22 07:41:00 51°14.422 2°54.714 -999 123 3.1 102230 88
2006-02-22 07:41:05 51°14.426 2°54.691 -999 124 3.1 102230 88
2006-02-22 07:41:10 51°14.43 2°54.665 -999 128 3.1 102130 88
2006-02-22 07:41:15 51°14.435 2°54.641 -999 115 3.1 102130 88
2006-02-22 07:41:20 51°14.44 2°54.617 -999 107 3.1 102190 88
2006-02-22 07:41:24 51°14.443 2°54.597 -999 119 3.1 102190 88
2006-02-22 07:41:30 51°14.447 2°54.567 -999 125 3.1 102130 88
2006-02-22 07:41:35 51°14.45 2°54.542 -999 123 3.1 102130 88
2006-02-22 07:41:40 51°14.453 2°54.516 -999 119 3.1 102200 88
2006-02-22 07:41:44 51°14.454 2°54.496 -999 119 3.1 102200 88
2006-02-22 07:41:50 51°14.456 2°54.465 -999 129 3.1 102130 88
2006-02-22 07:41:55 51°14.457 2°54.44 -999 146 3.1 102130 88
2006-02-22 07:42:00 51°14.456 2°54.414 -999 152 3.1 102130 88
2006-02-22 07:42:05 51°14.454 2°54.388 -999 166 3.1 102130 88
2006-02-22 07:42:10 51°14.452 2°54.363 -999 164 3.1 102130 88
2006-02-22 07:42:15 51°14.449 2°54.338 -999 173 3.1 102130 88
2006-02-22 07:42:20 51°14.444 2°54.315 -999 196 3.1 102120 88
2006-02-22 07:42:25 51°14.438 2°54.292 -999 230 3.1 102120 88
2006-02-22 07:42:30 51°14.429 2°54.271 -999 269 3.1 102130 88
2006-02-22 07:42:35 51°14.422 2°54.248 -999 235 3.1 102130 88
2006-02-22 07:42:40 51°14.414 2°54.227 -999 249 3.1 102140 88
2006-02-22 07:42:44 51°14.407 2°54.209 -999 242 3.1 102140 88
2006-02-22 07:42:50 51°14.398 2°54.182 -999 240 3.1 102130 88
2006-02-22 07:42:55 51°14.39 2°54.161 -999 241 3.1 102130 88
2006-02-22 07:43:00 51°14.382 2°54.138 -999 234 3.1 102130 88
2006-02-22 07:43:05 51°14.374 2°54.116 -999 226 3.1 102130 88
2006-02-22 07:43:10 51°14.366 2°54.093 -999 237 3.1 102130 88
2006-02-22 07:43:15 51°14.358 2°54.07 -999 230 3.1 102130 88
2006-02-22 07:43:20 51°14.349 2°54.048 -999 226 3.1 102130 88
2006-02-22 07:43:25 51°14.341 2°54.025 -999 239 3.1 102130 88
2006-02-22 07:43:30 51°14.333 2°54.002 -999 224 3.1 102130 88
2006-02-22 07:43:35 51°14.325 2°53.979 -999 227 3.1 102130 88
2006-02-22 07:43:40 51°14.316 2°53.956 -999 234 3.1 102130 88
2006-02-22 07:43:44 51°14.31 2°53.937 -999 220 3.1 102130 88
2006-02-22 07:43:50 51°14.298 2°53.91 -999 240 3.2 102130 88
2006-02-22 07:43:55 51°14.292 2°53.886 -999 194 3.2 102130 88
2006-02-22 07:44:00 51°14.281 2°53.864 -999 230 3.1 102130 88
2006-02-22 07:44:05 51°14.275 2°53.839 -999 207 3.1 102130 88
2006-02-22 07:44:10 51°14.265 2°53.818 -999 235 3.1 102130 88
2006-02-22 07:44:15 51°14.257 2°53.793 -999 235 3.1 102130 88
2006-02-22 07:44:20 51°14.248 2°53.771 -999 241 3.1 102130 88
2006-02-22 07:44:25 51°14.239 2°53.749 -999 239 3.1 102130 88
2006-02-22 07:44:30 51°14.231 2°53.725 -999 219 3.1 102130 88
2006-02-22 07:44:35 51°14.221 2°53.704 -999 248 3.1 102130 88
2006-02-22 07:44:40 51°14.214 2°53.678 -999 211 3.1 102130 88
2006-02-22 07:44:45 51°14.205 2°53.656 -999 234 3.1 102130 88
2006-02-22 07:44:50 51°14.196 2°53.633 -999 226 3.1 102130 88
2006-02-22 07:44:55 51°14.187 2°53.61 -999 237 3.1 102130 88
2006-02-22 07:45:00 51°14.178 2°53.586 -999 241 3.1 102130 88
2006-02-22 07:45:05 51°14.17 2°53.563 -999 240 3.1 102130 88
2006-02-22 07:45:10 51°14.161 2°53.54 -999 244 3.1 102120 88
2006-02-22 07:45:15 51°14.152 2°53.516 -999 234 3.1 102120 88
2006-02-22 07:45:20 51°14.143 2°53.493 -999 230 3.1 102120 88
2006-02-22 07:45:24 51°14.136 2°53.474 -999 225 3.1 102120 88
2006-02-22 07:45:30 51°14.126 2°53.445 -999 228 3.1 102130 88
2006-02-22 07:45:35 51°14.118 2°53.421 -999 239 3.1 102130 88
2006-02-22 07:45:40 51°14.11 2°53.396 -999 221 3.1 102130 88
2006-02-22 07:45:45 51°14.103 2°53.372 -999 217 3.1 102130 88
2006-02-22 07:45:50 51°14.094 2°53.348 -999 231 3.2 102130 88
2006-02-22 07:45:55 51°14.088 2°53.323 -999 209 3.2 102130 88
2006-02-22 07:46:00 51°14.079 2°53.3 -999 212 3.1 102130 88
2006-02-22 07:46:05 51°14.07 2°53.277 -999 212 3.1 102130 88
2006-02-22 07:46:10 51°14.062 2°53.253 -999 224 3.1 102130 88
2006-02-22 07:46:15 51°14.054 2°53.229 -999 229 3.1 102130 88
2006-02-22 07:46:20 51°14.046 2°53.205 -999 217 3.1 102130 88
2006-02-22 07:46:25 51°14.038 2°53.181 -999 244 3.1 102130 88
2006-02-22 07:46:30 51°14.03 2°53.157 -999 224 3.1 102130 88
2006-02-22 07:46:35 51°14.02 2°53.134 -999 239 3.1 102130 88
2006-02-22 07:46:39 51°14.014 2°53.114 -999 214 3.2 102130 88
2006-02-22 07:46:44 51°14.005 2°53.092 -999 236 3.2 102130 88
2006-02-22 07:46:50 51°13.995 2°53.061 -999 208 3.1 102130 88
2006-02-22 07:46:55 51°13.987 2°53.039 -999 239 3.1 102130 88
2006-02-22 07:46:59 51°13.979 2°53.019 -999 236 3.1 102130 88
2006-02-22 07:47:04 51°13.971 2°52.995 -999 233 3.1 102130 88
2006-02-22 07:47:10 51°13.961 2°52.966 -999 236 3.2 102130 88
2006-02-22 07:47:15 51°13.951 2°52.944 -999 241 3.2 102130 88
2006-02-22 07:47:19 51°13.944 2°52.924 -999 226 3.1 102130 88
2006-02-22 07:47:24 51°13.937 2°52.9 -999 230 3.1 102130 88
2006-02-22 07:47:30 51°13.926 2°52.873 -999 231 3.1 102130 88
2006-02-22 07:47:34 51°13.919 2°52.854 -999 221 3.1 102130 88
2006-02-22 07:47:40 51°13.909 2°52.825 -999 249 3.1 102130 88
2006-02-22 07:47:44 51°13.902 2°52.806 -999 238 3.1 102130 88
2006-02-22 07:47:50 51°13.893 2°52.778 -999 215 3.1 102130 88
2006-02-22 07:47:55 51°13.884 2°52.754 -999 215 3.1 102130 88
2006-02-22 07:47:59 51°13.878 2°52.734 -999 223 3.1 102120 88
2006-02-22 07:48:05 51°13.867 2°52.706 -999 225 3.1 102120 88
2006-02-22 07:48:08 51°13.862 2°52.692 -999 213 3.1 102130 88
2006-02-22 07:48:15 51°13.849 2°52.659 -999 233 3.1 102130 88
2006-02-22 07:48:19 51°13.842 2°52.64 -999 225 3.1 102120 88
2006-02-22 07:48:24 51°13.833 2°52.616 -999 241 3.1 102120 88
2006-02-22 07:48:29 51°13.825 2°52.592 -999 239 3.1 102130 88
2006-02-22 07:48:34 51°13.815 2°52.569 -999 255 3.1 102130 88
2006-02-22 07:48:39 51°13.807 2°52.545 -999 232 3.1 102130 88
2006-02-22 07:48:44 51°13.797 2°52.523 -999 255 3.1 102130 88
2006-02-22 07:48:49 51°13.789 2°52.497 -999 206 3.1 102130 88
2006-02-22 07:48:54 51°13.781 2°52.474 -999 230 3.1 102130 88
2006-02-22 07:48:59 51°13.772 2°52.45 -999 196 3.1 102130 88
2006-02-22 07:49:05 51°13.761 2°52.421 -999 230 3.1 102130 88
2006-02-22 07:49:10 51°13.754 2°52.397 -999 217 3.1 102130 88
2006-02-22 07:49:15 51°13.745 2°52.373 -999 228 3.1 102130 88
2006-02-22 07:49:19 51°13.738 2°52.354 -999 237 3.1 102140 88
2006-02-22 07:49:25 51°13.728 2°52.325 -999 251 3.1 102140 88
2006-02-22 07:49:28 51°13.722 2°52.311 -999 278 3.2 102130 88
2006-02-22 07:49:34 51°13.713 2°52.281 -999 251 3.2 102130 88
2006-02-22 07:49:39 51°13.703 2°52.258 -999 249 3.2 102130 88
2006-02-22 07:49:44 51°13.695 2°52.232 -999 244 3.2 102130 88
2006-02-22 07:49:50 51°13.683 2°52.205 -999 246 3.2 102130 88
2006-02-22 07:49:55 51°13.674 2°52.181 -999 240 3.2 102130 88
2006-02-22 07:49:59 51°13.668 2°52.161 -999 229 3.2 102130 89
2006-02-22 07:50:05 51°13.657 2°52.132 -999 218 3.2 102130 89
2006-02-22 07:50:08 51°13.653 2°52.117 -999 232 3.2 102130 89
2006-02-22 07:50:15 51°13.639 2°52.086 -999 234 3.2 102130 89
2006-02-22 07:50:20 51°13.63 2°52.061 -999 241 3.2 102120 88
2006-02-22 07:50:24 51°13.624 2°52.042 -999 231 3.2 102120 88
2006-02-22 07:50:30 51°13.614 2°52.015 -999 232 3.2 102130 88
2006-02-22 07:50:35 51°13.605 2°51.992 -999 225 3.2 102130 88
2006-02-22 07:50:39 51°13.598 2°51.972 -999 239 3.2 102130 89
2006-02-22 07:50:44 51°13.59 2°51.948 -999 228 3.2 102130 89
2006-02-22 07:50:49 51°13.581 2°51.927 -999 239 3.2 102130 89
2006-02-22 07:50:54 51°13.572 2°51.903 -999 220 3.2 102130 89
2006-02-22 07:51:00 51°13.561 2°51.875 -999 243 3.2 102130 88
2006-02-22 07:51:04 51°13.555 2°51.855 -999 178 3.2 102130 88
2006-02-22 07:51:10 51°13.544 2°51.828 -999 234 3.2 102130 88
2006-02-22 07:51:15 51°13.537 2°51.803 -999 218 3.2 102130 88
2006-02-22 07:51:19 51°13.53 2°51.785 -999 234 3.2 102120 88
2006-02-22 07:51:24 51°13.522 2°51.762 -999 254 3.2 102120 88
2006-02-22 07:51:30 51°13.511 2°51.734 -999 238 3.2 102130 88
2006-02-22 07:51:35 51°13.503 2°51.71 -999 259 3.2 102130 88
2006-02-22 07:51:39 51°13.496 2°51.691 -999 239 3.2 102130 88
2006-02-22 07:51:44 51°13.487 2°51.67 -999 247 3.2 102130 88
2006-02-22 07:51:50 51°13.476 2°51.641 -999 232 3.2 102130 88
2006-02-22 07:51:55 51°13.465 2°51.619 -999 237 3.2 102130 88
2006-02-22 07:51:59 51°13.459 2°51.6 -999 215 3.2 102130 88
2006-02-22 07:52:04 51°13.45 2°51.578 -999 254 3.2 102130 88
2006-02-22 07:52:10 51°13.44 2°51.549 -999 232 3.1 102130 88
2006-02-22 07:52:15 51°13.429 2°51.527 -999 258 3.1 102130 88
2006-02-22 07:52:19 51°13.423 2°51.508 -999 245 3.2 102140 88
2006-02-22 07:52:24 51°13.413 2°51.487 -999 249 3.2 102140 88
2006-02-22 07:52:29 51°13.405 2°51.462 -999 236 3.2 102130 88
2006-02-22 07:52:35 51°13.394 2°51.434 -999 234 3.2 102130 88
2006-02-22 07:52:40 51°13.386 2°51.41 -999 259 3.2 102130 88
2006-02-22 07:52:44 51°13.38 2°51.392 -999 256 3.2 102130 88
2006-02-22 07:52:50 51°13.368 2°51.365 -999 253 3.2 102120 88
2006-02-22 07:52:54 51°13.362 2°51.345 -999 251 3.2 102120 88
2006-02-22 07:53:00 51°13.35 2°51.318 -999 263 3.2 102130 88
2006-02-22 07:53:04 51°13.343 2°51.299 -999 247 3.2 102130 88
2006-02-22 07:53:08 51°13.336 2°51.281 -999 241 3.2 102140 88
2006-02-22 07:53:14 51°13.326 2°51.253 -999 245 3.2 102140 88
2006-02-22 07:53:19 51°13.316 2°51.228 -999 224 3.2 102120 88
2006-02-22 07:53:25 51°13.308 2°51.199 -999 247 3.2 102120 88
2006-02-22 07:53:29 51°13.299 2°51.182 -999 230 3.2 102130 89
2006-02-22 07:53:35 51°13.292 2°51.151 -999 224 3.2 102130 89
2006-02-22 07:53:39 51°13.283 2°51.134 -999 235 3.2 102140 89
2006-02-22 07:53:44 51°13.277 2°51.109 -999 230 3.2 102140 89
2006-02-22 07:53:50 51°13.264 2°51.081 -999 226 3.2 102220 89
2006-02-22 07:53:54 51°13.259 2°51.061 -999 216 3.2 102220 89
2006-02-22 07:53:59 51°13.249 2°51.039 -999 229 3.2 102220 89
2006-02-22 07:54:04 51°13.24 2°51.015 -999 229 3.2 102220 89
2006-02-22 07:54:10 51°13.23 2°50.988 -999 234 3.2 102230 89
2006-02-22 07:54:14 51°13.222 2°50.969 -999 212 3.2 102230 89
2006-02-22 07:54:20 51°13.214 2°50.938 -999 218 3.2 102230 89
2006-02-22 07:54:24 51°13.206 2°50.919 -999 244 3.2 102230 89
2006-02-22 07:54:30 51°13.197 2°50.889 -999 227 3.2 102240 89
2006-02-22 07:54:35 51°13.188 2°50.866 -999 255 3.2 102240 89
2006-02-22 07:54:40 51°13.18 2°50.841 -999 237 3.2 102220 89
2006-02-22 07:54:44 51°13.173 2°50.823 -999 225 3.2 102220 89
2006-02-22 07:54:49 51°13.165 2°50.799 -999 197 3.2 102240 89
2006-02-22 07:54:55 51°13.154 2°50.772 -999 221 3.2 102240 89
2006-02-22 07:55:00 51°13.145 2°50.748 -999 214 3.2 102230 89
2006-02-22 07:55:04 51°13.138 2°50.729 -999 240 3.2 102230 89
2006-02-22 07:55:10 51°13.126 2°50.701 -999 244 3.2 102240 89
2006-02-22 07:55:14 51°13.121 2°50.681 -999 242 3.2 102240 89
2006-02-22 07:55:20 51°13.109 2°50.654 -999 212 3.2 102230 89
2006-02-22 07:55:24 51°13.103 2°50.634 -999 227 3.2 102230 89
2006-02-22 07:55:29 51°13.093 2°50.61 -999 230 3.2 102230 89
2006-02-22 07:55:34 51°13.086 2°50.585 -999 182 3.2 102230 89
2006-02-22 07:55:40 51°13.074 2°50.558 -999 230 3.2 102230 89
2006-02-22 07:55:44 51°13.068 2°50.538 -999 196 3.2 102230 89
2006-02-22 07:55:48 51°13.061 2°50.52 -999 212 3.2 102230 89
2006-02-22 07:55:55 51°13.048 2°50.487 -999 189 3.2 102230 89
2006-02-22 07:55:59 51°13.04 2°50.468 -999 194 3.2 102230 89
2006-02-22 07:56:05 51°13.031 2°50.439 -999 212 3.2 102230 89
2006-02-22 07:56:09 51°13.023 2°50.421 -999 211 3.2 102230 89
2006-02-22 07:56:15 51°13.013 2°50.391 -999 209 3.2 102230 89
2006-02-22 07:56:19 51°13.007 2°50.372 -999 209 3.2 102250 89
2006-02-22 07:56:24 51°12.998 2°50.349 -999 215 3.2 102250 89
2006-02-22 07:56:30 51°12.987 2°50.319 -999 200 3.3 102240 89
2006-02-22 07:56:35 51°12.979 2°50.296 -999 192 3.3 102240 89
2006-02-22 07:56:39 51°12.972 2°50.277 -999 205 3.3 102230 89
2006-02-22 07:56:44 51°12.963 2°50.254 -999 199 3.3 102230 89
2006-02-22 07:56:49 51°12.955 2°50.229 -999 191 3.3 102240 89
2006-02-22 07:56:55 51°12.943 2°50.203 -999 195 3.3 102240 89
2006-02-22 07:57:00 51°12.935 2°50.178 -999 196 3.3 102240 89
2006-02-22 07:57:04 51°12.928 2°50.16 -999 217 3.3 102240 89
2006-02-22 07:57:09 51°12.918 2°50.138 -999 232 3.3 102230 88
2006-02-22 07:57:14 51°12.91 2°50.113 -999 246 3.3 102230 88
2006-02-22 07:57:20 51°12.899 2°50.085 -999 248 3.4 102230 88
2006-02-22 07:57:24 51°12.892 2°50.066 -999 234 3.4 102230 88
2006-02-22 07:57:29 51°12.884 2°50.041 -999 231 3.4 102240 88
2006-02-22 07:57:34 51°12.876 2°50.018 -999 232 3.4 102240 88
2006-02-22 07:57:40 51°12.864 2°49.991 -999 252 3.4 102240 88
2006-02-22 07:57:44 51°12.858 2°49.972 -999 251 3.4 102240 88
2006-02-22 07:57:49 51°12.848 2°49.95 -999 262 3.5 102240 88
2006-02-22 07:57:55 51°12.837 2°49.922 -999 247 3.5 102240 88
2006-02-22 07:58:00 51°12.828 2°49.899 -999 233 3.5 102230 88
2006-02-22 07:58:04 51°12.821 2°49.88 -999 212 3.5 102230 88
2006-02-22 07:58:10 51°12.81 2°49.852 -999 219 3.4 102240 88
2006-02-22 07:58:14 51°12.803 2°49.832 -999 209 3.4 102240 88
2006-02-22 07:58:19 51°12.794 2°49.809 -999 217 3.5 102240 88
2006-02-22 07:58:24 51°12.785 2°49.784 -999 231 3.5 102240 88
2006-02-22 07:58:30 51°12.776 2°49.755 -999 201 3.4 102240 88
2006-02-22 07:58:34 51°12.768 2°49.736 -999 192 3.4 102240 88
2006-02-22 07:58:40 51°12.759 2°49.707 -999 208 3.4 102230 88
2006-02-22 07:58:44 51°12.751 2°49.688 -999 204 3.4 102230 88
2006-02-22 07:58:50 51°12.741 2°49.659 -999 181 3.4 102240 87
2006-02-22 07:58:54 51°12.734 2°49.642 -999 256 3.4 102240 87
2006-02-22 07:58:59 51°12.725 2°49.619 -999 250 3.4 102250 87
2006-02-22 07:59:04 51°12.715 2°49.596 -999 254 3.4 102250 87
2006-02-22 07:59:10 51°12.704 2°49.568 -999 246 3.4 102250 87
2006-02-22 07:59:15 51°12.695 2°49.544 -999 244 3.4 102250 87
2006-02-22 07:59:19 51°12.686 2°49.526 -999 232 3.4 102250 87
2006-02-22 07:59:25 51°12.676 2°49.496 -999 236 3.4 102250 87
2006-02-22 07:59:28 51°12.672 2°49.482 -999 235 3.4 102250 87
2006-02-22 07:59:35 51°12.658 2°49.45 -999 216 3.4 102250 87
2006-02-22 07:59:40 51°12.65 2°49.425 -999 217 3.4 102250 87
2006-02-22 07:59:44 51°12.642 2°49.406 -999 227 3.4 102250 87
2006-02-22 07:59:50 51°12.633 2°49.378 -999 207 3.4 102250 87
2006-02-22 07:59:54 51°12.624 2°49.359 -999 225 3.4 102250 87
2006-02-22 08:00:00 51°12.614 2°49.33 -999 245 3.4 102260 87
2006-02-22 08:00:04 51°12.607 2°49.311 -999 245 3.4 102260 87
2006-02-22 08:00:09 51°12.599 2°49.286 -999 249 3.4 102250 87
2006-02-22 08:00:15 51°12.588 2°49.257 -999 241 3.4 102250 87
2006-02-22 08:00:20 51°12.579 2°49.232 -999 228 3.4 102250 87
2006-02-22 08:00:24 51°12.573 2°49.212 -999 235 3.4 102250 87
2006-02-22 08:00:30 51°12.562 2°49.183 -999 227 3.4 102260 87
2006-02-22 08:00:35 51°12.554 2°49.157 -999 204 3.4 102260 87
2006-02-22 08:00:39 51°12.549 2°49.137 -999 181 3.4 102250 87
2006-02-22 08:00:44 51°12.539 2°49.113 -999 174 3.4 102250 87
2006-02-22 08:00:50 51°12.529 2°49.084 -999 211 3.4 102250 88
2006-02-22 08:00:55 51°12.521 2°49.059 -999 166 3.4 102250 88
2006-02-22 08:00:59 51°12.514 2°49.041 -999 208 3.3 102250 87
2006-02-22 08:01:04 51°12.505 2°49.016 -999 177 3.3 102250 87
2006-02-22 08:01:10 51°12.495 2°48.988 -999 207 3.4 102250 88
2006-02-22 08:01:15 51°12.487 2°48.964 -999 200 3.4 102250 88
2006-02-22 08:01:20 51°12.477 2°48.941 -999 212 3.5 102250 88
2006-02-22 08:01:24 51°12.469 2°48.922 -999 211 3.5 102250 88
2006-02-22 08:01:30 51°12.459 2°48.894 -999 211 3.6 102260 89
2006-02-22 08:01:35 51°12.449 2°48.872 -999 215 3.6 102260 89
2006-02-22 08:01:40 51°12.442 2°48.846 -999 211 3.5 102260 88
2006-02-22 08:01:44 51°12.434 2°48.829 -999 226 3.5 102260 88
2006-02-22 08:01:50 51°12.424 2°48.8 -999 213 3.5 102260 87
2006-02-22 08:01:55 51°12.413 2°48.778 -999 219 3.5 102260 87
2006-02-22 08:02:00 51°12.406 2°48.754 -999 215 3.5 102260 87
2006-02-22 08:02:04 51°12.397 2°48.737 -999 211 3.5 102260 87
2006-02-22 08:02:09 51°12.388 2°48.712 -999 205 3.5 102260 87
2006-02-22 08:02:14 51°12.379 2°48.689 -999 228 3.5 102260 87
2006-02-22 08:02:20 51°12.369 2°48.662 -999 225 3.5 102270 87
2006-02-22 08:02:24 51°12.361 2°48.642 -999 211 3.5 102270 87
2006-02-22 08:02:29 51°12.354 2°48.617 -999 213 3.5 102260 87
2006-02-22 08:02:35 51°12.344 2°48.589 -999 219 3.5 102260 87
2006-02-22 08:02:40 51°12.333 2°48.566 -999 229 3.5 102250 87
2006-02-22 08:02:44 51°12.327 2°48.546 -999 227 3.5 102250 87
2006-02-22 08:02:50 51°12.316 2°48.519 -999 240 3.5 102260 86
2006-02-22 08:02:55 51°12.307 2°48.494 -999 231 3.5 102260 86
2006-02-22 08:03:00 51°12.299 2°48.471 -999 249 3.4 102260 86
2006-02-22 08:03:04 51°12.29 2°48.453 -999 268 3.4 102260 86
2006-02-22 08:03:10 51°12.281 2°48.423 -999 257 3.4 102260 86
2006-02-22 08:03:15 51°12.27 2°48.399 -999 270 3.4 102260 86
2006-02-22 08:03:19 51°12.265 2°48.379 -999 260 3.4 102260 86
2006-02-22 08:03:24 51°12.256 2°48.356 -999 239 3.4 102260 86
2006-02-22 08:03:30 51°12.246 2°48.326 -999 237 3.4 102260 86
2006-02-22 08:03:35 51°12.238 2°48.301 -999 239 3.4 102260 86
2006-02-22 08:03:40 51°12.231 2°48.278 -999 232 3.4 102260 86
2006-02-22 08:03:44 51°12.223 2°48.259 -999 228 3.4 102260 86
2006-02-22 08:03:48 51°12.216 2°48.239 -999 202 3.4 102260 86
2006-02-22 08:03:54 51°12.206 2°48.211 -999 228 3.4 102260 86
2006-02-22 08:03:59 51°12.197 2°48.187 -999 233 3.4 102250 86
2006-02-22 08:04:05 51°12.186 2°48.159 -999 223 3.4 102250 86
2006-02-22 08:04:08 51°12.181 2°48.145 -999 230 3.4 102270 86
2006-02-22 08:04:15 51°12.168 2°48.111 -999 225 3.4 102270 86
2006-02-22 08:04:20 51°12.158 2°48.088 -999 218 3.4 102260 86
2006-02-22 08:04:24 51°12.152 2°48.069 -999 229 3.4 102260 86
2006-02-22 08:04:30 51°12.14 2°48.041 -999 251 3.4 102260 87
2006-02-22 08:04:34 51°12.134 2°48.021 -999 245 3.4 102260 87
2006-02-22 08:04:40 51°12.123 2°47.993 -999 263 3.4 102250 87
2006-02-22 08:04:44 51°12.117 2°47.973 -999 252 3.4 102250 87
2006-02-22 08:04:50 51°12.106 2°47.946 -999 255 3.4 102260 87
2006-02-22 08:04:55 51°12.097 2°47.922 -999 265 3.4 102260 87
2006-02-22 08:05:00 51°12.087 2°47.901 -999 269 3.4 102260 87
2006-02-22 08:05:05 51°12.079 2°47.877 -999 265 3.4 102260 87
2006-02-22 08:05:10 51°12.068 2°47.855 -999 266 3.4 102260 87
2006-02-22 08:05:15 51°12.06 2°47.83 -999 265 3.4 102260 87
2006-02-22 08:05:20 51°12.05 2°47.808 -999 266 3.4 102260 87
2006-02-22 08:05:25 51°12.043 2°47.782 -999 258 3.4 102260 87
2006-02-22 08:05:30 51°12.032 2°47.76 -999 262 3.4 102250 87
2006-02-22 08:05:34 51°12.027 2°47.739 -999 266 3.4 102250 87
2006-02-22 08:05:40 51°12.015 2°47.711 -999 263 3.4 102250 87
2006-02-22 08:05:44 51°12.01 2°47.691 -999 246 3.4 102250 87
2006-02-22 08:05:50 51°11.997 2°47.664 -999 261 3.4 102260 87
2006-02-22 08:05:55 51°11.991 2°47.639 -999 247 3.4 102260 87
2006-02-22 08:06:00 51°11.98 2°47.617 -999 249 3.4 102260 87
2006-02-22 08:06:04 51°11.974 2°47.596 -999 235 3.4 102260 87
2006-02-22 08:06:09 51°11.967 2°47.572 -999 232 3.4 102250 87
2006-02-22 08:06:15 51°11.956 2°47.544 -999 224 3.4 102250 87
2006-02-22 08:06:19 51°11.95 2°47.525 -999 229 3.4 102260 87
2006-02-22 08:06:24 51°11.94 2°47.502 -999 234 3.4 102260 87
2006-02-22 08:06:29 51°11.932 2°47.478 -999 227 3.4 102270 87
2006-02-22 08:06:35 51°11.922 2°47.45 -999 239 3.4 102270 87
2006-02-22 08:06:40 51°11.911 2°47.428 -999 255 3.4 102260 87
2006-02-22 08:06:44 51°11.906 2°47.408 -999 233 3.4 102260 87
2006-02-22 08:06:50 51°11.894 2°47.382 -999 241 3.4 102260 87
2006-02-22 08:06:55 51°11.886 2°47.357 -999 245 3.4 102260 87
2006-02-22 08:07:00 51°11.876 2°47.334 -999 240 3.4 102250 87
2006-02-22 08:07:04 51°11.869 2°47.316 -999 242 3.4 102250 87
2006-02-22 08:07:09 51°11.86 2°47.292 -999 240 3.4 102270 87
2006-02-22 08:07:14 51°11.852 2°47.267 -999 245 3.4 102270 87
2006-02-22 08:07:20 51°11.842 2°47.239 -999 243 3.4 102270 87
2006-02-22 08:07:25 51°11.833 2°47.216 -999 238 3.4 102270 87
2006-02-22 08:07:30 51°11.824 2°47.192 -999 242 3.3 102260 87
2006-02-22 08:07:35 51°11.815 2°47.168 -999 235 3.3 102260 87
2006-02-22 08:07:39 51°11.808 2°47.149 -999 231 3.3 102260 87
2006-02-22 08:07:44 51°11.8 2°47.124 -999 232 3.3 102260 87
2006-02-22 08:07:50 51°11.788 2°47.096 -999 245 3.4 102270 87
2006-02-22 08:07:54 51°11.783 2°47.075 -999 211 3.4 102270 87
2006-02-22 08:07:59 51°11.774 2°47.051 -999 212 3.3 102260 87
2006-02-22 08:08:05 51°11.764 2°47.021 -999 216 3.3 102260 87
2006-02-22 08:08:08 51°11.759 2°47.007 -999 226 3.3 102250 87
2006-02-22 08:08:15 51°11.746 2°46.973 -999 214 3.3 102250 87
2006-02-22 08:08:20 51°11.739 2°46.948 -999 223 3.4 102260 87
2006-02-22 08:08:24 51°11.731 2°46.929 -999 203 3.4 102260 87
2006-02-22 08:08:30 51°11.722 2°46.898 -999 219 3.3 102270 87
2006-02-22 08:08:35 51°11.714 2°46.874 -999 204 3.3 102270 87
2006-02-22 08:08:40 51°11.706 2°46.849 -999 217 3.3 102270 87
2006-02-22 08:08:44 51°11.698 2°46.83 -999 197 3.3 102270 87
2006-02-22 08:08:50 51°11.69 2°46.8 -999 212 3.3 102260 87
2006-02-22 08:08:55 51°11.682 2°46.775 -999 225 3.3 102260 87
2006-02-22 08:09:00 51°11.675 2°46.749 -999 224 3.3 102260 87
2006-02-22 08:09:04 51°11.671 2°46.727 -999 194 3.3 102260 87
2006-02-22 08:09:09 51°11.664 2°46.701 -999 232 3.3 102270 87
2006-02-22 08:09:15 51°11.658 2°46.669 -999 178 3.3 102270 87
2006-02-22 08:09:20 51°11.653 2°46.642 -999 177 3.3 102270 87
2006-02-22 08:09:24 51°11.65 2°46.62 -999 181 3.3 102270 87
2006-02-22 08:09:30 51°11.643 2°46.588 -999 180 3.4 102250 87
2006-02-22 08:09:34 51°11.641 2°46.566 -999 183 3.4 102250 87
2006-02-22 08:09:39 51°11.636 2°46.539 -999 169 3.4 102260 87
2006-02-22 08:09:45 51°11.629 2°46.508 -999 189 3.4 102260 87
2006-02-22 08:09:50 51°11.625 2°46.48 -999 157 3.4 102260 87
2006-02-22 08:09:55 51°11.62 2°46.453 -999 218 3.4 102260 87
2006-02-22 08:09:59 51°11.617 2°46.431 -999 168 3.4 102270 87
2006-02-22 08:10:04 51°11.611 2°46.405 -999 161 3.4 102270 87
2006-02-22 08:10:10 51°11.607 2°46.371 -999 156 3.4 102270 87
2006-02-22 08:10:14 51°11.602 2°46.351 -999 174 3.4 102270 87
2006-02-22 08:10:19 51°11.597 2°46.324 -999 169 3.4 102270 87
2006-02-22 08:10:24 51°11.591 2°46.297 -999 132 3.4 102270 87
2006-02-22 08:10:30 51°11.586 2°46.265 -999 204 3.4 102270 87
2006-02-22 08:10:35 51°11.581 2°46.238 -999 173 3.4 102270 87
2006-02-22 08:10:40 51°11.575 2°46.211 -999 232 3.4 102270 87
2006-02-22 08:10:44 51°11.572 2°46.189 -999 218 3.4 102270 87
2006-02-22 08:10:48 51°11.568 2°46.168 -999 187 3.4 102270 87
2006-02-22 08:10:55 51°11.561 2°46.13 -999 179 3.4 102270 87
2006-02-22 08:11:00 51°11.556 2°46.103 -999 180 3.5 102260 87
2006-02-22 08:11:04 51°11.552 2°46.082 -999 186 3.5 102260 87
2006-02-22 08:11:09 51°11.548 2°46.054 -999 193 3.5 102270 88
2006-02-22 08:11:15 51°11.541 2°46.022 -999 184 3.5 102270 88
2006-02-22 08:11:20 51°11.536 2°45.995 -999 195 3.5 102270 87
2006-02-22 08:11:24 51°11.533 2°45.973 -999 194 3.5 102270 87
2006-02-22 08:11:29 51°11.527 2°45.946 -999 197 3.6 102270 87
2006-02-22 08:11:35 51°11.523 2°45.912 -999 172 3.6 102270 87
2006-02-22 08:11:40 51°11.517 2°45.886 -999 213 3.6 102270 87
2006-02-22 08:11:44 51°11.514 2°45.864 -999 181 3.6 102270 87
2006-02-22 08:11:49 51°11.508 2°45.838 -999 225 3.6 102260 87
2006-02-22 08:11:55 51°11.503 2°45.806 -999 208 3.6 102260 87
2006-02-22 08:11:59 51°11.498 2°45.785 -999 207 3.6 102260 86
2006-02-22 08:12:04 51°11.493 2°45.757 -999 197 3.6 102260 86
2006-02-22 08:12:10 51°11.487 2°45.725 -999 215 3.6 102270 86
2006-02-22 08:12:14 51°11.483 2°45.703 -999 177 3.6 102270 86
2006-02-22 08:12:19 51°11.478 2°45.675 -999 221 3.6 102270 86
2006-02-22 08:12:24 51°11.474 2°45.648 -999 189 3.6 102270 86
2006-02-22 08:12:30 51°11.467 2°45.616 -999 239 3.6 102260 86
2006-02-22 08:12:35 51°11.464 2°45.587 -999 225 3.6 102260 86
2006-02-22 08:12:39 51°11.459 2°45.566 -999 228 3.5 102270 85
2006-02-22 08:12:44 51°11.456 2°45.539 -999 219 3.5 102270 85
2006-02-22 08:12:50 51°11.448 2°45.506 -999 225 3.5 102270 85
2006-02-22 08:12:54 51°11.446 2°45.484 -999 225 3.5 102270 85
2006-02-22 08:12:59 51°11.44 2°45.458 -999 224 3.5 102270 85
2006-02-22 08:13:04 51°11.434 2°45.43 -999 177 3.5 102270 85
2006-02-22 08:13:10 51°11.43 2°45.397 -999 187 3.5 102270 85
2006-02-22 08:13:15 51°11.424 2°45.37 -999 168 3.5 102270 85
2006-02-22 08:13:20 51°11.421 2°45.342 -999 151 3.5 102270 85
2006-02-22 08:13:24 51°11.416 2°45.32 -999 202 3.5 102270 85
2006-02-22 08:13:30 51°11.412 2°45.286 -999 212 3.5 102270 85
2006-02-22 08:13:34 51°11.409 2°45.265 -999 159 3.5 102270 85
2006-02-22 08:13:40 51°11.403 2°45.233 -999 201 3.5 102270 85
2006-02-22 08:13:45 51°11.397 2°45.206 -999 225 3.5 102270 85
2006-02-22 08:13:50 51°11.393 2°45.179 -999 152 3.5 102270 86
2006-02-22 08:13:55 51°11.387 2°45.153 -999 223 3.5 102270 86
2006-02-22 08:14:00 51°11.38 2°45.126 -999 197 3.5 102270 86
2006-02-22 08:14:04 51°11.378 2°45.104 -999 218 3.5 102270 86
2006-02-22 08:14:10 51°11.37 2°45.072 -999 236 3.5 102270 86
2006-02-22 08:14:14 51°11.366 2°45.05 -999 207 3.5 102270 86
2006-02-22 08:14:20 51°11.359 2°45.019 -999 226 3.5 102270 86
2006-02-22 08:14:25 51°11.354 2°44.992 -999 161 3.5 102270 86
2006-02-22 08:14:30 51°11.349 2°44.965 -999 223 3.5 102260 86
2006-02-22 08:14:35 51°11.344 2°44.938 -999 183 3.5 102260 86
2006-02-22 08:14:39 51°11.34 2°44.917 -999 183 3.5 102280 86
2006-02-22 08:14:44 51°11.334 2°44.89 -999 182 3.5 102280 86
2006-02-22 08:14:50 51°11.328 2°44.857 -999 207 3.5 102270 86
2006-02-22 08:14:55 51°11.324 2°44.831 -999 208 3.5 102270 86
2006-02-22 08:15:00 51°11.318 2°44.804 -999 241 3.5 102270 86
2006-02-22 08:15:04 51°11.316 2°44.781 -999 184 3.5 102270 86
2006-02-22 08:15:08 51°11.311 2°44.76 -999 203 3.5 102270 86
2006-02-22 08:15:14 51°11.304 2°44.727 -999 154 3.5 102270 86
2006-02-22 08:15:19 51°11.3 2°44.7 -999 169 3.5 102270 86
2006-02-22 08:15:25 51°11.294 2°44.667 -999 178 3.5 102270 86
2006-02-22 08:15:28 51°11.292 2°44.65 -999 131 3.5 102270 86
2006-02-22 08:15:35 51°11.284 2°44.61 -999 227 3.5 102270 86
2006-02-22 08:15:40 51°11.279 2°44.584 -999 156 3.5 102280 86
2006-02-22 08:15:44 51°11.275 2°44.562 -999 138 3.5 102280 86
2006-02-22 08:15:50 51°11.27 2°44.528 -999 139 3.5 102280 86
2006-02-22 08:15:55 51°11.266 2°44.5 -999 148 3.5 102280 86
2006-02-22 08:16:00 51°11.26 2°44.473 -999 239 3.5 102270 86
2006-02-22 08:16:04 51°11.257 2°44.451 -999 207 3.5 102270 86
2006-02-22 08:16:10 51°11.25 2°44.418 -999 206 3.5 102270 86
2006-02-22 08:16:14 51°11.247 2°44.396 -999 112 3.5 102270 86
2006-02-22 08:16:20 51°11.241 2°44.363 -999 226 3.5 102260 86
2006-02-22 08:16:25 51°11.236 2°44.336 -999 221 3.5 102260 86
2006-02-22 08:16:30 51°11.231 2°44.309 -999 222 3.5 102280 86
2006-02-22 08:16:35 51°11.227 2°44.281 -999 205 3.5 102280 86
2006-02-22 08:16:39 51°11.222 2°44.26 -999 230 3.5 102270 86
2006-02-22 08:16:44 51°11.217 2°44.234 -999 204 3.5 102270 86
2006-02-22 08:16:50 51°11.21 2°44.201 -999 225 3.5 102270 86
2006-02-22 08:16:55 51°11.205 2°44.173 -999 208 3.5 102270 86
2006-02-22 08:17:00 51°11.201 2°44.145 -999 205 3.5 102270 86
2006-02-22 08:17:04 51°11.197 2°44.124 -999 183 3.5 102270 86
2006-02-22 08:17:10 51°11.193 2°44.09 -999 173 3.5 102270 86
2006-02-22 08:17:14 51°11.189 2°44.068 -999 198 3.5 102270 86
2006-02-22 08:17:19 51°11.186 2°44.04 -999 199 3.5 102270 86
2006-02-22 08:17:24 51°11.182 2°44.013 -999 234 3.5 102270 86
2006-02-22 08:17:30 51°11.177 2°43.98 -999 226 3.5 102280 86
2006-02-22 08:17:35 51°11.173 2°43.952 -999 219 3.5 102280 86
2006-02-22 08:17:39 51°11.169 2°43.93 -999 214 3.5 102270 86
2006-02-22 08:17:44 51°11.165 2°43.902 -999 236 3.5 102270 86
2006-02-22 08:17:48 51°11.161 2°43.88 -999 221 3.5 102270 87
2006-02-22 08:17:55 51°11.156 2°43.841 -999 181 3.5 102270 87
2006-02-22 08:18:00 51°11.151 2°43.813 -999 149 3.5 102270 86
2006-02-22 08:18:04 51°11.149 2°43.79 -999 157 3.5 102270 86
2006-02-22 08:18:10 51°11.144 2°43.757 -999 175 3.5 102270 86
2006-02-22 08:18:15 51°11.139 2°43.73 -999 172 3.5 102270 86
2006-02-22 08:18:20 51°11.135 2°43.701 -999 149 3.4 102280 86
2006-02-22 08:18:24 51°11.132 2°43.679 -999 167 3.4 102280 86
2006-02-22 08:18:28 51°11.128 2°43.658 -999 196 3.5 102270 86
2006-02-22 08:18:34 51°11.122 2°43.624 -999 230 3.5 102270 86
2006-02-22 08:18:39 51°11.118 2°43.596 -999 194 3.5 102280 86
2006-02-22 08:18:45 51°11.111 2°43.564 -999 176 3.5 102280 86
2006-02-22 08:18:50 51°11.108 2°43.536 -999 135 3.5 102270 86
2006-02-22 08:18:55 51°11.103 2°43.508 -999 242 3.5 102270 86
2006-02-22 08:18:59 51°11.099 2°43.487 -999 243 3.5 102270 87
2006-02-22 08:19:04 51°11.094 2°43.459 -999 152 3.5 102270 87
2006-02-22 08:19:10 51°11.089 2°43.427 -999 252 3.5 102280 87
2006-02-22 08:19:14 51°11.084 2°43.406 -999 149 3.5 102280 87
2006-02-22 08:19:19 51°11.08 2°43.377 -999 146 3.5 102270 87
2006-02-22 08:19:24 51°11.076 2°43.35 -999 155 3.5 102270 87
2006-02-22 08:19:30 51°11.07 2°43.317 -999 204 3.5 102270 87
2006-02-22 08:19:35 51°11.067 2°43.29 -999 161 3.5 102270 87
2006-02-22 08:19:40 51°11.062 2°43.261 -999 176 3.5 102290 87
2006-02-22 08:19:44 51°11.059 2°43.239 -999 153 3.5 102290 87
2006-02-22 08:19:48 51°11.056 2°43.217 -999 161 3.5 102270 87
2006-02-22 08:19:54 51°11.05 2°43.184 -999 160 3.5 102270 87
2006-02-22 08:19:59 51°11.045 2°43.154 -999 152 3.5 102280 87
2006-02-22 08:20:05 51°11.041 2°43.121 -999 202 3.5 102280 87
2006-02-22 08:20:10 51°11.038 2°43.093 -999 127 3.5 102280 87
2006-02-22 08:20:15 51°11.033 2°43.065 -999 157 3.5 102280 87
2006-02-22 08:20:20 51°11.03 2°43.037 -999 155 3.5 102280 87
2006-02-22 08:20:24 51°11.027 2°43.014 -999 160 3.5 102280 87
2006-02-22 08:20:30 51°11.022 2°42.981 -999 159 3.5 102290 87
2006-02-22 08:20:35 51°11.018 2°42.954 -999 173 3.5 102290 87
2006-02-22 08:20:39 51°11.015 2°42.93 -999 157 3.5 102270 87
2006-02-22 08:20:44 51°11.011 2°42.903 -999 171 3.5 102270 87
2006-02-22 08:20:50 51°11.006 2°42.87 -999 179 3.5 102280 87
2006-02-22 08:20:54 51°11.002 2°42.847 -999 170 3.5 102280 87
2006-02-22 08:20:59 51°10.999 2°42.819 -999 172 3.5 102280 87
2006-02-22 08:21:05 51°10.994 2°42.787 -999 167 3.5 102280 87
2006-02-22 08:21:10 51°10.989 2°42.759 -999 165 3.5 102290 87
2006-02-22 08:21:15 51°10.986 2°42.73 -999 175 3.5 102290 87
2006-02-22 08:21:20 51°10.981 2°42.703 -999 177 3.5 102280 87
2006-02-22 08:21:24 51°10.978 2°42.681 -999 144 3.5 102280 87
2006-02-22 08:21:30 51°10.972 2°42.649 -999 160 3.5 102280 87
2006-02-22 08:21:34 51°10.969 2°42.626 -999 138 3.5 102280 87
2006-02-22 08:21:39 51°10.965 2°42.597 -999 142 3.5 102290 87
2006-02-22 08:21:45 51°10.961 2°42.565 -999 163 3.5 102290 87
2006-02-22 08:21:50 51°10.956 2°42.537 -999 165 3.5 102270 87
2006-02-22 08:21:54 51°10.953 2°42.514 -999 163 3.5 102270 87
2006-02-22 08:22:00 51°10.948 2°42.481 -999 188 3.5 102270 87
2006-02-22 08:22:04 51°10.946 2°42.458 -999 172 3.5 102270 87
2006-02-22 08:22:09 51°10.94 2°42.432 -999 197 3.5 102280 87
2006-02-22 08:22:15 51°10.937 2°42.398 -999 229 3.5 102280 87
2006-02-22 08:22:20 51°10.931 2°42.37 -999 223 3.5 102280 87
2006-02-22 08:22:24 51°10.929 2°42.348 -999 239 3.5 102280 87
2006-02-22 08:22:30 51°10.923 2°42.316 -999 227 3.5 102280 87
2006-02-22 08:22:35 51°10.917 2°42.289 -999 197 3.5 102280 87
2006-02-22 08:22:40 51°10.914 2°42.26 -999 132 3.5 102270 87
2006-02-22 08:22:44 51°10.91 2°42.238 -999 231 3.5 102270 87
2006-02-22 08:22:49 51°10.906 2°42.21 -999 217 3.5 102280 87
2006-02-22 08:22:54 51°10.901 2°42.183 -999 166 3.5 102280 87
2006-02-22 08:22:59 51°10.896 2°42.156 -999 168 3.5 102290 87
2006-02-22 08:23:04 51°10.892 2°42.127 -999 168 3.5 102290 87
2006-02-22 08:23:08 51°10.889 2°42.104 -999 165 3.5 102290 87
2006-02-22 08:23:15 51°10.883 2°42.066 -999 183 3.5 102290 87
2006-02-22 08:23:19 51°10.879 2°42.044 -999 164 3.5 102280 87
2006-02-22 08:23:24 51°10.876 2°42.016 -999 194 3.5 102280 87
2006-02-22 08:23:28 51°10.872 2°41.994 -999 154 3.5 102290 87
2006-02-22 08:23:34 51°10.869 2°41.96 -999 151 3.5 102290 87
2006-02-22 08:23:39 51°10.865 2°41.933 -999 139 3.5 102290 87
2006-02-22 08:23:44 51°10.86 2°41.906 -999 147 3.5 102290 87
2006-02-22 08:23:50 51°10.855 2°41.873 -999 125 3.6 102290 87
2006-02-22 08:23:55 51°10.851 2°41.845 -999 142 3.6 102290 87
2006-02-22 08:24:00 51°10.846 2°41.817 -999 145 3.6 102280 87
2006-02-22 08:24:04 51°10.843 2°41.795 -999 119 3.6 102280 87
2006-02-22 08:24:10 51°10.837 2°41.763 -999 43 3.5 102280 87
2006-02-22 08:24:14 51°10.835 2°41.74 -999 153 3.5 102280 87
2006-02-22 08:24:19 51°10.83 2°41.713 -999 160 3.6 102280 87
2006-02-22 08:24:24 51°10.827 2°41.686 -999 134 3.6 102280 87
2006-02-22 08:24:30 51°10.821 2°41.653 -999 135 3.6 102290 87
2006-02-22 08:24:35 51°10.818 2°41.625 -999 165 3.6 102290 87
2006-02-22 08:24:40 51°10.812 2°41.599 -999 164 3.6 102280 87
2006-02-22 08:24:44 51°10.81 2°41.576 -999 113 3.6 102280 87
2006-02-22 08:24:50 51°10.804 2°41.543 -999 135 3.5 102280 87
2006-02-22 08:24:55 51°10.801 2°41.516 -999 155 3.5 102280 87
2006-02-22 08:25:00 51°10.796 2°41.489 -999 137 3.5 102290 87
2006-02-22 08:25:05 51°10.793 2°41.461 -999 119 3.5 102290 87
2006-02-22 08:25:10 51°10.787 2°41.434 -999 169 3.5 102290 87
2006-02-22 08:25:15 51°10.784 2°41.407 -999 142 3.5 102290 87
2006-02-22 08:25:19 51°10.779 2°41.385 -999 151 3.5 102280 87
2006-02-22 08:25:24 51°10.776 2°41.358 -999 141 3.5 102280 87
2006-02-22 08:25:30 51°10.771 2°41.325 -999 152 3.5 102280 87
2006-02-22 08:25:35 51°10.767 2°41.297 -999 146 3.5 102280 87
2006-02-22 08:25:40 51°10.763 2°41.269 -999 133 3.5 102290 87
2006-02-22 08:25:45 51°10.758 2°41.241 -999 158 3.5 102290 87
2006-02-22 08:25:50 51°10.756 2°41.213 -999 134 3.5 102290 87
2006-02-22 08:25:55 51°10.75 2°41.187 -999 150 3.5 102290 87
2006-02-22 08:26:00 51°10.747 2°41.158 -999 149 3.5 102290 87
2006-02-22 08:26:04 51°10.745 2°41.135 -999 153 3.5 102290 87
2006-02-22 08:26:10 51°10.74 2°41.101 -999 137 3.5 102290 87
2006-02-22 08:26:14 51°10.738 2°41.079 -999 130 3.5 102290 87
2006-02-22 08:26:19 51°10.735 2°41.051 -999 153 3.5 102290 87
2006-02-22 08:26:24 51°10.732 2°41.023 -999 143 3.5 102290 87
2006-02-22 08:26:30 51°10.728 2°40.989 -999 153 3.5 102290 87
2006-02-22 08:26:35 51°10.725 2°40.961 -999 151 3.5 102290 87
2006-02-22 08:26:40 51°10.719 2°40.934 -999 204 3.5 102280 87
2006-02-22 08:26:44 51°10.718 2°40.911 -999 175 3.5 102280 87
2006-02-22 08:26:49 51°10.711 2°40.885 -999 250 3.5 102300 88
2006-02-22 08:26:55 51°10.708 2°40.85 -999 246 3.5 102300 88
2006-02-22 08:27:00 51°10.703 2°40.823 -999 228 3.5 102280 88
2006-02-22 08:27:04 51°10.701 2°40.8 -999 226 3.5 102280 88
2006-02-22 08:27:10 51°10.695 2°40.767 -999 220 3.5 102280 88
2006-02-22 08:27:15 51°10.691 2°40.739 -999 199 3.5 102280 88
2006-02-22 08:27:19 51°10.688 2°40.717 -999 234 3.5 102280 88
2006-02-22 08:27:24 51°10.683 2°40.69 -999 198 3.5 102280 88
2006-02-22 08:27:28 51°10.68 2°40.668 -999 209 3.5 102290 88
2006-02-22 08:27:34 51°10.675 2°40.634 -999 151 3.5 102290 88
2006-02-22 08:27:40 51°10.67 2°40.601 -999 154 3.5 102290 88
2006-02-22 08:27:44 51°10.667 2°40.579 -999 159 3.5 102290 88
2006-02-22 08:27:50 51°10.661 2°40.545 -999 186 3.5 102300 88
2006-02-22 08:27:55 51°10.657 2°40.518 -999 178 3.5 102300 88
2006-02-22 08:27:59 51°10.653 2°40.495 -999 167 3.5 102290 88
2006-02-22 08:28:05 51°10.647 2°40.462 -999 152 3.5 102290 88
2006-02-22 08:28:10 51°10.643 2°40.433 -999 149 3.5 102290 88
2006-02-22 08:28:15 51°10.638 2°40.405 -999 171 3.5 102290 88
2006-02-22 08:28:19 51°10.634 2°40.383 -999 201 3.5 102300 88
2006-02-22 08:28:25 51°10.629 2°40.349 -999 165 3.5 102300 88
2006-02-22 08:28:30 51°10.622 2°40.321 -999 181 3.6 102300 88
2006-02-22 08:28:35 51°10.619 2°40.292 -999 175 3.6 102300 88
2006-02-22 08:28:40 51°10.612 2°40.265 -999 191 3.5 102290 87
2006-02-22 08:28:44 51°10.609 2°40.241 -999 168 3.5 102290 87
2006-02-22 08:28:50 51°10.603 2°40.209 -999 196 3.5 102280 87
2006-02-22 08:28:55 51°10.6 2°40.18 -999 147 3.5 102280 87
2006-02-22 08:29:00 51°10.593 2°40.153 -999 199 3.6 102290 87
2006-02-22 08:29:04 51°10.59 2°40.131 -999 143 3.6 102290 87
2006-02-22 08:29:10 51°10.583 2°40.098 -999 160 3.6 102290 88
2006-02-22 08:29:15 51°10.58 2°40.07 -999 143 3.6 102290 88
2006-02-22 08:29:20 51°10.572 2°40.043 -999 170 3.6 102300 88
2006-02-22 08:29:24 51°10.569 2°40.02 -999 149 3.6 102300 88
2006-02-22 08:29:30 51°10.563 2°39.987 -999 177 3.6 102290 87
2006-02-22 08:29:34 51°10.559 2°39.964 -999 138 3.6 102290 87
2006-02-22 08:29:40 51°10.555 2°39.93 -999 170 3.6 102290 87
2006-02-22 08:29:44 51°10.551 2°39.908 -999 158 3.6 102290 87
2006-02-22 08:29:50 51°10.545 2°39.873 -999 157 3.6 102290 87
2006-02-22 08:29:54 51°10.542 2°39.851 -999 163 3.6 102290 87
2006-02-22 08:30:00 51°10.536 2°39.817 -999 168 3.6 102290 87
2006-02-22 08:30:04 51°10.533 2°39.794 -999 149 3.6 102290 87
2006-02-22 08:30:08 51°10.529 2°39.773 -999 149 3.6 102300 87
2006-02-22 08:30:14 51°10.523 2°39.739 -999 222 3.6 102300 87
2006-02-22 08:30:19 51°10.52 2°39.71 -999 122 3.6 102300 87
2006-02-22 08:30:24 51°10.513 2°39.682 -999 178 3.6 102300 87
2006-02-22 08:30:30 51°10.51 2°39.648 -999 118 3.6 102290 87
2006-02-22 08:30:35 51°10.504 2°39.621 -999 135 3.6 102290 87
2006-02-22 08:30:40 51°10.5 2°39.591 -999 93 3.6 102300 87
2006-02-22 08:30:44 51°10.496 2°39.569 -999 116 3.6 102300 87
2006-02-22 08:30:50 51°10.49 2°39.534 -999 125 3.6 102300 87
2006-02-22 08:30:55 51°10.486 2°39.506 -999 124 3.6 102300 87
2006-02-22 08:31:00 51°10.481 2°39.477 -999 125 3.6 102290 87
2006-02-22 08:31:04 51°10.478 2°39.454 -999 118 3.6 102290 87
2006-02-22 08:31:09 51°10.475 2°39.425 -999 122 3.6 102300 87
2006-02-22 08:31:15 51°10.469 2°39.392 -999 128 3.6 102300 87
2006-02-22 08:31:20 51°10.465 2°39.364 -999 136 3.6 102300 87
2006-02-22 08:31:25 51°10.46 2°39.336 -999 134 3.6 102300 87
2006-02-22 08:31:28 51°10.457 2°39.319 -999 151 3.6 102300 87
2006-02-22 08:31:35 51°10.451 2°39.279 -999 138 3.6 102300 87
2006-02-22 08:31:40 51°10.443 2°39.252 -999 168 3.6 102290 87
2006-02-22 08:31:44 51°10.442 2°39.229 -999 144 3.6 102290 87
2006-02-22 08:31:49 51°10.434 2°39.203 -999 248 3.6 102290 87
2006-02-22 08:31:54 51°10.431 2°39.175 -999 147 3.6 102290 87
2006-02-22 08:32:00 51°10.424 2°39.142 -999 172 3.6 102290 87
2006-02-22 08:32:05 51°10.417 2°39.116 -999 134 3.6 102290 87
2006-02-22 08:32:10 51°10.413 2°39.087 -999 132 3.6 102280 88
2006-02-22 08:32:15 51°10.408 2°39.059 -999 143 3.6 102280 88
2006-02-22 08:32:20 51°10.403 2°39.031 -999 132 3.6 102300 88
2006-02-22 08:32:25 51°10.399 2°39.002 -999 127 3.6 102300 88
2006-02-22 08:32:28 51°10.397 2°38.985 -999 150 3.6 102310 88
2006-02-22 08:32:34 51°10.39 2°38.952 -999 144 3.6 102310 88
2006-02-22 08:32:39 51°10.387 2°38.923 -999 141 3.6 102310 88
2006-02-22 08:32:45 51°10.381 2°38.889 -999 135 3.6 102310 88
2006-02-22 08:32:50 51°10.377 2°38.861 -999 164 3.6 102310 88
2006-02-22 08:32:55 51°10.372 2°38.833 -999 144 3.6 102310 88
2006-02-22 08:33:00 51°10.368 2°38.804 -999 168 3.6 102290 88
2006-02-22 08:33:04 51°10.364 2°38.782 -999 170 3.6 102290 88
2006-02-22 08:33:10 51°10.357 2°38.747 -999 191 3.6 102300 88
2006-02-22 08:33:15 51°10.353 2°38.718 -999 132 3.6 102300 88
2006-02-22 08:33:20 51°10.347 2°38.691 -999 185 3.6 102300 88
2006-02-22 08:33:24 51°10.343 2°38.667 -999 165 3.6 102300 88
2006-02-22 08:33:30 51°10.337 2°38.633 -999 220 3.6 102300 88
2006-02-22 08:33:35 51°10.332 2°38.606 -999 129 3.6 102300 88
2006-02-22 08:33:40 51°10.326 2°38.578 -999 188 3.6 102290 88
2006-02-22 08:33:44 51°10.323 2°38.555 -999 169 3.6 102290 88
2006-02-22 08:33:49 51°10.317 2°38.528 -999 204 3.6 102300 88
2006-02-22 08:33:55 51°10.312 2°38.494 -999 133 3.6 102300 88
2006-02-22 08:34:00 51°10.306 2°38.467 -999 155 3.6 102300 88
2006-02-22 08:34:05 51°10.302 2°38.44 -999 164 3.6 102300 88
2006-02-22 08:34:10 51°10.294 2°38.412 -999 175 3.6 102290 88
2006-02-22 08:34:15 51°10.29 2°38.385 -999 172 3.6 102290 88
2006-02-22 08:34:20 51°10.284 2°38.358 -999 160 3.6 102310 88
2006-02-22 08:34:24 51°10.28 2°38.335 -999 126 3.6 102310 88
2006-02-22 08:34:30 51°10.273 2°38.302 -999 132 3.6 102290 88
2006-02-22 08:34:34 51°10.269 2°38.28 -999 138 3.6 102290 88
2006-02-22 08:34:40 51°10.262 2°38.246 -999 143 3.6 102290 88
2006-02-22 08:34:45 51°10.257 2°38.218 -999 156 3.6 102290 88
2006-02-22 08:34:50 51°10.252 2°38.19 -999 139 3.6 102310 88
2006-02-22 08:34:55 51°10.247 2°38.162 -999 146 3.6 102310 88
2006-02-22 08:34:59 51°10.242 2°38.14 -999 159 3.5 102290 88
2006-02-22 08:35:04 51°10.237 2°38.112 -999 139 3.5 102290 88
2006-02-22 08:35:10 51°10.231 2°38.079 -999 153 3.5 102290 88
2006-02-22 08:35:15 51°10.225 2°38.051 -999 143 3.5 102290 88
2006-02-22 08:35:20 51°10.221 2°38.022 -999 137 3.5 102300 88
2006-02-22 08:35:24 51°10.217 2°38.001 -999 150 3.5 102300 88
2006-02-22 08:35:30 51°10.211 2°37.969 -999 151 3.5 102300 88
2006-02-22 08:35:35 51°10.203 2°37.94 -999 151 3.5 102300 88
2006-02-22 08:35:40 51°10.2 2°37.912 -999 145 3.5 102310 87
2006-02-22 08:35:44 51°10.193 2°37.893 -999 174 3.5 102310 87
2006-02-22 08:35:50 51°10.187 2°37.858 -999 140 3.5 102310 88
2006-02-22 08:35:55 51°10.183 2°37.83 -999 157 3.5 102310 88
2006-02-22 08:36:00 51°10.178 2°37.803 -999 155 3.5 102310 88
2006-02-22 08:36:04 51°10.174 2°37.78 -999 163 3.5 102310 88
2006-02-22 08:36:10 51°10.167 2°37.746 -999 161 3.5 102300 88
2006-02-22 08:36:15 51°10.163 2°37.719 -999 205 3.5 102300 88
2006-02-22 08:36:20 51°10.157 2°37.691 -999 162 3.5 102300 88
2006-02-22 08:36:25 51°10.151 2°37.664 -999 175 3.5 102300 88
2006-02-22 08:36:28 51°10.149 2°37.648 -999 157 3.5 102300 88
2006-02-22 08:36:35 51°10.138 2°37.61 -999 196 3.5 102300 88
2006-02-22 08:36:40 51°10.136 2°37.58 -999 140 3.5 102300 88
2006-02-22 08:36:45 51°10.128 2°37.554 -999 161 3.5 102300 88
2006-02-22 08:36:48 51°10.126 2°37.537 -999 146 3.5 102300 88
2006-02-22 08:36:55 51°10.117 2°37.498 -999 158 3.5 102300 88
2006-02-22 08:36:59 51°10.115 2°37.475 -999 148 3.5 102310 88
2006-02-22 08:37:05 51°10.107 2°37.442 -999 134 3.5 102310 88
2006-02-22 08:37:10 51°10.103 2°37.413 -999 116 3.5 102300 87
2006-02-22 08:37:15 51°10.097 2°37.385 -999 128 3.5 102300 87
2006-02-22 08:37:20 51°10.092 2°37.356 -999 132 3.5 102300 88
2006-02-22 08:37:25 51°10.086 2°37.328 -999 160 3.5 102300 88
2006-02-22 08:37:30 51°10.081 2°37.3 -999 140 3.5 102310 88
2006-02-22 08:37:35 51°10.075 2°37.272 -999 149 3.5 102310 88
2006-02-22 08:37:40 51°10.069 2°37.243 -999 144 3.5 102300 88
2006-02-22 08:37:44 51°10.066 2°37.22 -999 153 3.5 102300 88
2006-02-22 08:37:48 51°10.061 2°37.199 -999 159 3.5 102300 88
2006-02-22 08:37:55 51°10.054 2°37.159 -999 153 3.5 102300 88
2006-02-22 08:37:59 51°10.05 2°37.136 -999 145 3.5 102300 88
2006-02-22 08:38:04 51°10.046 2°37.108 -999 147 3.5 102300 88
2006-02-22 08:38:10 51°10.04 2°37.074 -999 147 3.5 102300 88
2006-02-22 08:38:15 51°10.035 2°37.047 -999 148 3.5 102300 88
2006-02-22 08:38:20 51°10.031 2°37.018 -999 146 3.5 102300 88
2006-02-22 08:38:24 51°10.028 2°36.996 -999 137 3.5 102300 88
2006-02-22 08:38:30 51°10.025 2°36.962 -999 135 3.5 102300 88
2006-02-22 08:38:35 51°10.021 2°36.933 -999 114 3.5 102300 88
2006-02-22 08:38:40 51°10.02 2°36.904 -999 128 3.5 102300 88
2006-02-22 08:38:45 51°10.017 2°36.876 -999 133 3.5 102300 88
2006-02-22 08:38:50 51°10.015 2°36.846 -999 135 3.5 102300 88
2006-02-22 08:38:55 51°10.014 2°36.817 -999 133 3.5 102300 88
2006-02-22 08:39:00 51°10.012 2°36.788 -999 139 3.5 102310 88
2006-02-22 08:39:04 51°10.011 2°36.765 -999 137 3.5 102310 88
2006-02-22 08:39:10 51°10.01 2°36.73 -999 125 3.5 102300 88
2006-02-22 08:39:15 51°10.008 2°36.701 -999 130 3.5 102300 88
2006-02-22 08:39:19 51°10.007 2°36.678 -999 120 3.5 102310 88
2006-02-22 08:39:25 51°10.004 2°36.644 -999 130 3.5 102310 88
2006-02-22 08:39:30 51°10.002 2°36.615 -999 139 3.5 102300 88
2006-02-22 08:39:35 51°10.001 2°36.586 -999 123 3.5 102300 88
2006-02-22 08:39:40 51°9.999 2°36.558 -999 139 3.5 102290 88
2006-02-22 08:39:44 51°9.997 2°36.534 -999 133 3.5 102290 88
2006-02-22 08:39:50 51°9.994 2°36.498 -999 226 3.5 102300 88
2006-02-22 08:39:55 51°9.994 2°36.469 -999 141 3.5 102300 88
2006-02-22 08:40:00 51°9.99 2°36.441 -999 148 3.5 102280 88
2006-02-22 08:40:04 51°9.99 2°36.416 -999 146 3.5 102280 88
2006-02-22 08:40:10 51°9.988 2°36.381 -999 145 3.5 102300 88
2006-02-22 08:40:15 51°9.986 2°36.353 -999 140 3.5 102300 88
2006-02-22 08:40:20 51°9.986 2°36.323 -999 138 3.5 102290 88
2006-02-22 08:40:24 51°9.985 2°36.299 -999 113 3.5 102290 88
2006-02-22 08:40:29 51°9.987 2°36.27 -999 130 3.5 102300 88
2006-02-22 08:40:35 51°9.989 2°36.235 -999 123 3.5 102300 88
2006-02-22 08:40:40 51°9.992 2°36.206 -999 123 3.5 102300 88
2006-02-22 08:40:45 51°9.993 2°36.177 -999 126 3.5 102300 88
2006-02-22 08:40:50 51°9.996 2°36.148 -999 121 3.4 102300 88
2006-02-22 08:40:55 51°9.999 2°36.12 -999 120 3.4 102300 88
2006-02-22 08:41:00 51°10.002 2°36.091 -999 121 3.4 102300 88
2006-02-22 08:41:04 51°10.005 2°36.068 -999 94 3.4 102300 88
2006-02-22 08:41:10 51°10.012 2°36.036 -999 98 3.4 102300 88
2006-02-22 08:41:15 51°10.018 2°36.009 -999 109 3.4 102300 88
2006-02-22 08:41:20 51°10.025 2°35.982 -999 115 3.4 102290 88
2006-02-22 08:41:25 51°10.033 2°35.957 -999 102 3.4 102290 88
2006-02-22 08:41:29 51°10.04 2°35.937 -999 106 3.4 102290 88
2006-02-22 08:41:34 51°10.049 2°35.912 -999 96 3.4 102290 88
2006-02-22 08:41:39 51°10.061 2°35.89 -999 98 3.4 102300 88
2006-02-22 08:41:45 51°10.074 2°35.864 -999 90 3.4 102300 88
2006-02-22 08:41:50 51°10.086 2°35.844 -999 77 3.4 102300 88
2006-02-22 08:41:54 51°10.097 2°35.83 -999 79 3.4 102300 88
2006-02-22 08:42:00 51°10.113 2°35.809 -999 77 3.5 102280 88
2006-02-22 08:42:04 51°10.125 2°35.796 -999 68 3.5 102280 88
2006-02-22 08:42:10 51°10.143 2°35.78 -999 64 3.5 102300 88
2006-02-22 08:42:15 51°10.158 2°35.769 -999 64 3.5 102300 88
2006-02-22 08:42:20 51°10.175 2°35.762 -999 67 3.4 102290 88
2006-02-22 08:42:25 51°10.192 2°35.757 -999 59 3.4 102290 88
2006-02-22 08:42:28 51°10.202 2°35.755 -999 48 3.4 102260 88
2006-02-22 08:42:35 51°10.225 2°35.756 -999 43 3.4 102260 88
2006-02-22 08:42:40 51°10.242 2°35.76 -999 37 3.4 102250 88
2006-02-22 08:42:45 51°10.258 2°35.767 -999 41 3.4 102250 88
2006-02-22 08:42:48 51°10.267 2°35.771 -999 34 3.4 102250 88
2006-02-22 08:42:55 51°10.288 2°35.785 -999 30 3.4 102250 88
2006-02-22 08:43:00 51°10.303 2°35.797 -999 33 3.4 102250 88
2006-02-22 08:43:05 51°10.318 2°35.81 -999 35 3.4 102250 88
2006-02-22 08:43:08 51°10.326 2°35.817 -999 32 3.4 102250 88
2006-02-22 08:43:15 51°10.347 2°35.835 -999 30 3.4 102250 88
2006-02-22 08:43:20 51°10.362 2°35.848 -999 27 3.4 102260 88
2006-02-22 08:43:25 51°10.377 2°35.862 -999 29 3.4 102260 88
2006-02-22 08:43:28 51°10.386 2°35.869 -999 27 3.5 102250 88
2006-02-22 08:43:35 51°10.406 2°35.888 -999 31 3.5 102250 88
2006-02-22 08:43:39 51°10.418 2°35.899 -999 29 3.5 102250 88
2006-02-22 08:43:44 51°10.433 2°35.913 -999 31 3.5 102250 88
2006-02-22 08:43:48 51°10.445 2°35.924 -999 32 3.5 102240 88
2006-02-22 08:43:55 51°10.466 2°35.944 -999 31 3.5 102240 88
2006-02-22 08:44:00 51°10.481 2°35.957 -999 29 3.5 102240 88
2006-02-22 08:44:05 51°10.495 2°35.971 -999 29 3.5 102240 88
2006-02-22 08:44:10 51°10.51 2°35.985 -999 27 3.5 102250 88
2006-02-22 08:44:15 51°10.524 2°36 -999 29 3.5 102250 88
2006-02-22 08:44:20 51°10.539 2°36.013 -999 33 3.5 102250 88
2006-02-22 08:44:24 51°10.551 2°36.025 -999 28 3.5 102250 88
2006-02-22 08:44:30 51°10.568 2°36.041 -999 26 3.5 102240 88
2006-02-22 08:44:35 51°10.583 2°36.055 -999 25 3.5 102240 88
2006-02-22 08:44:40 51°10.598 2°36.069 -999 23 3.5 102240 88
2006-02-22 08:44:45 51°10.613 2°36.084 -999 24 3.5 102240 88
2006-02-22 08:44:48 51°10.622 2°36.092 -999 26 3.5 102240 88
2006-02-22 08:44:55 51°10.642 2°36.112 -999 29 3.5 102240 88
2006-02-22 08:45:00 51°10.656 2°36.126 -999 29 3.5 102240 88
2006-02-22 08:45:04 51°10.668 2°36.138 -999 30 3.5 102240 88
2006-02-22 08:45:09 51°10.683 2°36.152 -999 31 3.5 102250 88
2006-02-22 08:45:15 51°10.701 2°36.168 -999 27 3.5 102250 88
2006-02-22 08:45:20 51°10.715 2°36.182 -999 31 3.5 102240 88
2006-02-22 08:45:24 51°10.727 2°36.193 -999 34 3.5 102240 88
2006-02-22 08:45:30 51°10.745 2°36.21 -999 33 3.5 102230 88
2006-02-22 08:45:35 51°10.76 2°36.224 -999 30 3.5 102230 88
2006-02-22 08:45:40 51°10.775 2°36.238 -999 35 3.5 102240 88
2006-02-22 08:45:44 51°10.787 2°36.249 -999 30 3.5 102240 88
2006-02-22 08:45:50 51°10.804 2°36.266 -999 25 3.4 102230 88
2006-02-22 08:45:55 51°10.818 2°36.28 -999 26 3.4 102230 88
2006-02-22 08:46:00 51°10.833 2°36.294 -999 26 3.5 102240 88
2006-02-22 08:46:04 51°10.844 2°36.305 -999 30 3.5 102240 88
2006-02-22 08:46:10 51°10.861 2°36.323 -999 26 3.5 102240 88
2006-02-22 08:46:15 51°10.876 2°36.337 -999 31 3.5 102240 88
2006-02-22 08:46:19 51°10.887 2°36.349 -999 32 3.5 102250 88
2006-02-22 08:46:24 51°10.902 2°36.363 -999 22 3.5 102250 88
2006-02-22 08:46:30 51°10.918 2°36.381 -999 23 3.4 102230 88
2006-02-22 08:46:35 51°10.933 2°36.397 -999 30 3.4 102230 88
2006-02-22 08:46:39 51°10.944 2°36.409 -999 31 3.5 102250 88
2006-02-22 08:46:44 51°10.958 2°36.425 -999 24 3.5 102250 88
2006-02-22 08:46:50 51°10.975 2°36.444 -999 31 3.5 102220 88
2006-02-22 08:46:55 51°10.989 2°36.459 -999 28 3.5 102220 88
2006-02-22 08:47:00 51°11.002 2°36.474 -999 26 3.5 102250 88
2006-02-22 08:47:04 51°11.013 2°36.486 -999 27 3.5 102250 88
2006-02-22 08:47:10 51°11.03 2°36.505 -999 26 3.4 102260 88
2006-02-22 08:47:15 51°11.044 2°36.52 -999 26 3.4 102260 88
2006-02-22 08:47:19 51°11.056 2°36.533 -999 27 3.4 102240 88
2006-02-22 08:47:24 51°11.07 2°36.548 -999 27 3.4 102240 88
2006-02-22 08:47:29 51°11.084 2°36.563 -999 26 3.4 102240 88
2006-02-22 08:47:35 51°11.101 2°36.582 -999 24 3.4 102240 88
2006-02-22 08:47:40 51°11.115 2°36.597 -999 24 3.4 102240 88
2006-02-22 08:47:44 51°11.126 2°36.61 -999 28 3.4 102240 88
2006-02-22 08:47:50 51°11.143 2°36.629 -999 27 3.4 102250 88
2006-02-22 08:47:54 51°11.155 2°36.642 -999 25 3.4 102250 88
2006-02-22 08:48:00 51°11.172 2°36.661 -999 34 3.4 102240 88
2006-02-22 08:48:05 51°11.186 2°36.676 -999 32 3.4 102240 88
2006-02-22 08:48:08 51°11.194 2°36.685 -999 25 3.4 102250 87
2006-02-22 08:48:15 51°11.214 2°36.707 -999 28 3.4 102250 87
2006-02-22 08:48:20 51°11.228 2°36.723 -999 26 3.4 102240 87
2006-02-22 08:48:25 51°11.243 2°36.738 -999 27 3.4 102240 87
2006-02-22 08:48:30 51°11.257 2°36.753 -999 24 3.4 102240 87
2006-02-22 08:48:35 51°11.271 2°36.769 -999 25 3.4 102240 87
2006-02-22 08:48:39 51°11.282 2°36.782 -999 24 3.4 102250 87
2006-02-22 08:48:45 51°11.299 2°36.801 -999 27 3.4 102250 87
2006-02-22 08:48:50 51°11.313 2°36.816 -999 26 3.4 102260 88
2006-02-22 08:48:55 51°11.327 2°36.831 -999 29 3.4 102260 88
2006-02-22 08:49:00 51°11.341 2°36.846 -999 27 3.4 102260 88
2006-02-22 08:49:04 51°11.353 2°36.859 -999 29 3.4 102260 88
2006-02-22 08:49:10 51°11.37 2°36.878 -999 33 3.4 102260 88
2006-02-22 08:49:15 51°11.384 2°36.894 -999 24 3.4 102260 88
2006-02-22 08:49:20 51°11.398 2°36.91 -999 24 3.4 102250 88
2006-02-22 08:49:24 51°11.409 2°36.922 -999 23 3.4 102250 88
2006-02-22 08:49:28 51°11.42 2°36.935 -999 26 3.4 102250 88
2006-02-22 08:49:35 51°11.439 2°36.956 -999 28 3.4 102250 88
2006-02-22 08:49:40 51°11.453 2°36.971 -999 23 3.4 102240 88
2006-02-22 08:49:45 51°11.467 2°36.986 -999 27 3.4 102240 88
2006-02-22 08:49:50 51°11.481 2°37.002 -999 24 3.4 102240 88
2006-02-22 08:49:55 51°11.495 2°37.016 -999 25 3.4 102240 88
2006-02-22 08:49:59 51°11.506 2°37.028 -999 28 3.4 102280 88
2006-02-22 08:50:04 51°11.52 2°37.043 -999 27 3.4 102280 88
2006-02-22 08:50:09 51°11.534 2°37.059 -999 29 3.4 102260 88
2006-02-22 08:50:14 51°11.548 2°37.074 -999 29 3.4 102260 88
2006-02-22 08:50:20 51°11.564 2°37.091 -999 26 3.4 102250 88
2006-02-22 08:50:25 51°11.578 2°37.107 -999 28 3.4 102250 88
2006-02-22 08:50:30 51°11.592 2°37.122 -999 31 3.4 102240 88
2006-02-22 08:50:35 51°11.606 2°37.136 -999 30 3.4 102240 88
2006-02-22 08:50:40 51°11.62 2°37.151 -999 25 3.4 102240 88
2006-02-22 08:50:44 51°11.632 2°37.163 -999 29 3.4 102240 88
2006-02-22 08:50:50 51°11.649 2°37.18 -999 28 3.4 102260 88
2006-02-22 08:50:55 51°11.663 2°37.196 -999 27 3.4 102260 88
2006-02-22 08:51:00 51°11.677 2°37.211 -999 30 3.4 102250 88